sensor_id;sensor_type;location;lat;lon;timestamp;P1;durP1;ratioP1;P2;durP2;ratioP2
33190;SDS011;19554;42.652;23.364;2023-05-29T00:01:21;9.10;;;5.72;;
33190;SDS011;19554;42.652;23.364;2023-05-29T00:03:49;6.43;;;4.75;;
33190;SDS011;19554;42.652;23.364;2023-05-29T00:06:14;6.50;;;4.85;;
33190;SDS011;19554;42.652;23.364;2023-05-29T00:08:40;12.73;;;5.43;;
33190;SDS011;19554;42.652;23.364;2023-05-29T00:11:05;10.02;;;4.95;;
33190;SDS011;19554;42.652;23.364;2023-05-29T00:13:31;9.02;;;5.07;;
33190;SDS011;19554;42.652;23.364;2023-05-29T00:15:56;11.90;;;5.40;;
33190;SDS011;19554;42.652;23.364;2023-05-29T00:18:22;14.18;;;5.75;;
33190;SDS011;19554;42.652;23.364;2023-05-29T00:20:47;9.73;;;5.85;;
33190;SDS011;19554;42.652;23.364;2023-05-29T00:23:13;12.52;;;6.25;;
33190;SDS011;19554;42.652;23.364;2023-05-29T00:25:38;19.00;;;5.50;;
33190;SDS011;19554;42.652;23.364;2023-05-29T00:28:05;14.48;;;5.38;;
33190;SDS011;19554;42.652;23.364;2023-05-29T00:30:32;7.63;;;5.10;;
33190;SDS011;19554;42.652;23.364;2023-05-29T00:32:57;11.45;;;5.30;;
33190;SDS011;19554;42.652;23.364;2023-05-29T00:35:22;10.27;;;4.70;;
33190;SDS011;19554;42.652;23.364;2023-05-29T00:37:48;10.85;;;5.72;;
33190;SDS011;19554;42.652;23.364;2023-05-29T00:40:13;6.57;;;4.22;;
33190;SDS011;19554;42.652;23.364;2023-05-29T00:42:39;13.85;;;5.32;;
33190;SDS011;19554;42.652;23.364;2023-05-29T00:45:05;8.63;;;4.38;;
33190;SDS011;19554;42.652;23.364;2023-05-29T00:47:31;9.18;;;4.75;;
33190;SDS011;19554;42.652;23.364;2023-05-29T00:49:56;7.25;;;4.45;;
33190;SDS011;19554;42.652;23.364;2023-05-29T00:52:23;6.88;;;4.65;;
33190;SDS011;19554;42.652;23.364;2023-05-29T00:54:49;6.88;;;4.60;;
33190;SDS011;19554;42.652;23.364;2023-05-29T00:57:15;10.48;;;5.00;;
33190;SDS011;19554;42.652;23.364;2023-05-29T00:59:41;7.25;;;4.82;;
33190;SDS011;19554;42.652;23.364;2023-05-29T01:02:08;10.52;;;4.75;;
33190;SDS011;19554;42.652;23.364;2023-05-29T01:04:34;7.10;;;5.28;;
33190;SDS011;19554;42.652;23.364;2023-05-29T01:07:01;8.10;;;4.55;;
33190;SDS011;19554;42.652;23.364;2023-05-29T01:09:27;10.35;;;4.13;;
33190;SDS011;19554;42.652;23.364;2023-05-29T01:17:24;11.13;;;5.15;;
33190;SDS011;19554;42.652;23.364;2023-05-29T01:20:47;9.55;;;4.80;;
33190;SDS011;19554;42.652;23.364;2023-05-29T01:23:06;10.63;;;5.63;;
33190;SDS011;19554;42.652;23.364;2023-05-29T01:28:42;9.98;;;5.65;;
33190;SDS011;19554;42.652;23.364;2023-05-29T01:31:11;9.00;;;5.18;;
33190;SDS011;19554;42.652;23.364;2023-05-29T01:33:38;7.57;;;5.38;;
33190;SDS011;19554;42.652;23.364;2023-05-29T01:36:06;11.43;;;4.93;;
33190;SDS011;19554;42.652;23.364;2023-05-29T01:38:33;19.90;;;5.10;;
33190;SDS011;19554;42.652;23.364;2023-05-29T01:40:58;5.90;;;4.55;;
33190;SDS011;19554;42.652;23.364;2023-05-29T01:43:24;13.55;;;4.82;;
33190;SDS011;19554;42.652;23.364;2023-05-29T01:45:51;7.78;;;4.97;;
33190;SDS011;19554;42.652;23.364;2023-05-29T01:48:17;12.57;;;5.22;;
33190;SDS011;19554;42.652;23.364;2023-05-29T01:50:42;12.30;;;5.00;;
33190;SDS011;19554;42.652;23.364;2023-05-29T01:53:09;10.68;;;5.38;;
33190;SDS011;19554;42.652;23.364;2023-05-29T01:55:34;10.65;;;5.43;;
33190;SDS011;19554;42.652;23.364;2023-05-29T01:58:00;12.55;;;5.30;;
33190;SDS011;19554;42.652;23.364;2023-05-29T02:00:26;13.50;;;5.70;;
33190;SDS011;19554;42.652;23.364;2023-05-29T02:02:52;11.77;;;5.18;;
33190;SDS011;19554;42.652;23.364;2023-05-29T02:05:17;12.07;;;5.70;;
33190;SDS011;19554;42.652;23.364;2023-05-29T02:07:42;9.55;;;5.28;;
33190;SDS011;19554;42.652;23.364;2023-05-29T02:10:08;10.63;;;5.85;;
33190;SDS011;19554;42.652;23.364;2023-05-29T02:12:34;8.95;;;6.28;;
33190;SDS011;19554;42.652;23.364;2023-05-29T02:14:59;17.15;;;5.68;;
33190;SDS011;19554;42.652;23.364;2023-05-29T02:17:24;13.30;;;6.25;;
33190;SDS011;19554;42.652;23.364;2023-05-29T02:19:50;13.18;;;5.22;;
33190;SDS011;19554;42.652;23.364;2023-05-29T02:22:17;8.93;;;5.30;;
33190;SDS011;19554;42.652;23.364;2023-05-29T02:24:42;13.82;;;6.57;;
33190;SDS011;19554;42.652;23.364;2023-05-29T02:27:08;11.32;;;5.90;;
33190;SDS011;19554;42.652;23.364;2023-05-29T02:29:34;11.10;;;5.63;;
33190;SDS011;19554;42.652;23.364;2023-05-29T02:31:59;7.63;;;6.00;;
33190;SDS011;19554;42.652;23.364;2023-05-29T02:34:25;11.15;;;6.40;;
33190;SDS011;19554;42.652;23.364;2023-05-29T02:36:50;8.77;;;5.82;;
33190;SDS011;19554;42.652;23.364;2023-05-29T02:39:19;11.43;;;5.88;;
33190;SDS011;19554;42.652;23.364;2023-05-29T02:41:45;11.30;;;6.15;;
33190;SDS011;19554;42.652;23.364;2023-05-29T02:44:10;19.17;;;6.05;;
33190;SDS011;19554;42.652;23.364;2023-05-29T02:46:36;10.48;;;6.57;;
33190;SDS011;19554;42.652;23.364;2023-05-29T02:49:01;12.70;;;6.93;;
33190;SDS011;19554;42.652;23.364;2023-05-29T02:51:27;11.30;;;6.90;;
33190;SDS011;19554;42.652;23.364;2023-05-29T02:53:52;8.63;;;5.88;;
33190;SDS011;19554;42.652;23.364;2023-05-29T02:56:18;10.13;;;6.90;;
33190;SDS011;19554;42.652;23.364;2023-05-29T02:58:44;10.18;;;7.40;;
33190;SDS011;19554;42.652;23.364;2023-05-29T03:01:10;12.95;;;6.80;;
33190;SDS011;19554;42.652;23.364;2023-05-29T03:03:35;10.02;;;6.40;;
33190;SDS011;19554;42.652;23.364;2023-05-29T03:06:01;13.43;;;7.18;;
33190;SDS011;19554;42.652;23.364;2023-05-29T03:08:26;10.10;;;6.47;;
33190;SDS011;19554;42.652;23.364;2023-05-29T03:10:53;11.13;;;6.45;;
33190;SDS011;19554;42.652;23.364;2023-05-29T03:13:19;12.13;;;6.40;;
33190;SDS011;19554;42.652;23.364;2023-05-29T03:15:44;11.55;;;5.88;;
33190;SDS011;19554;42.652;23.364;2023-05-29T03:18:10;9.77;;;6.20;;
33190;SDS011;19554;42.652;23.364;2023-05-29T03:20:35;14.70;;;6.30;;
33190;SDS011;19554;42.652;23.364;2023-05-29T03:23:01;12.95;;;6.70;;
33190;SDS011;19554;42.652;23.364;2023-05-29T03:25:27;13.20;;;5.72;;
33190;SDS011;19554;42.652;23.364;2023-05-29T03:27:52;14.48;;;6.95;;
33190;SDS011;19554;42.652;23.364;2023-05-29T03:30:18;12.57;;;6.15;;
33190;SDS011;19554;42.652;23.364;2023-05-29T03:32:45;10.45;;;5.95;;
33190;SDS011;19554;42.652;23.364;2023-05-29T03:35:10;12.15;;;5.90;;
33190;SDS011;19554;42.652;23.364;2023-05-29T03:37:36;7.95;;;5.45;;
33190;SDS011;19554;42.652;23.364;2023-05-29T03:40:02;10.07;;;6.13;;
33190;SDS011;19554;42.652;23.364;2023-05-29T03:42:28;14.10;;;5.90;;
33190;SDS011;19554;42.652;23.364;2023-05-29T03:44:56;31.05;;;8.77;;
33190;SDS011;19554;42.652;23.364;2023-05-29T03:47:21;20.30;;;6.45;;
33190;SDS011;19554;42.652;23.364;2023-05-29T03:49:47;10.10;;;5.82;;
33190;SDS011;19554;42.652;23.364;2023-05-29T03:52:12;15.20;;;5.90;;
33190;SDS011;19554;42.652;23.364;2023-05-29T03:54:37;14.43;;;5.90;;
33190;SDS011;19554;42.652;23.364;2023-05-29T03:57:03;8.68;;;5.97;;
33190;SDS011;19554;42.652;23.364;2023-05-29T03:59:28;8.43;;;5.40;;
33190;SDS011;19554;42.652;23.364;2023-05-29T04:01:54;20.67;;;6.70;;
33190;SDS011;19554;42.652;23.364;2023-05-29T04:04:19;23.88;;;7.57;;
33190;SDS011;19554;42.652;23.364;2023-05-29T04:06:45;27.52;;;7.25;;
33190;SDS011;19554;42.652;23.364;2023-05-29T04:09:10;15.57;;;5.85;;
33190;SDS011;19554;42.652;23.364;2023-05-29T04:11:36;12.88;;;6.20;;
33190;SDS011;19554;42.652;23.364;2023-05-29T04:14:02;12.70;;;6.18;;
33190;SDS011;19554;42.652;23.364;2023-05-29T04:16:27;15.63;;;7.20;;
33190;SDS011;19554;42.652;23.364;2023-05-29T04:18:53;16.30;;;7.90;;
33190;SDS011;19554;42.652;23.364;2023-05-29T04:21:20;16.88;;;7.20;;
33190;SDS011;19554;42.652;23.364;2023-05-29T04:23:45;11.50;;;7.32;;
33190;SDS011;19554;42.652;23.364;2023-05-29T04:26:10;10.65;;;6.60;;
33190;SDS011;19554;42.652;23.364;2023-05-29T04:28:37;12.65;;;6.65;;
33190;SDS011;19554;42.652;23.364;2023-05-29T04:31:03;11.57;;;6.95;;
33190;SDS011;19554;42.652;23.364;2023-05-29T04:33:30;14.48;;;8.00;;
33190;SDS011;19554;42.652;23.364;2023-05-29T04:35:57;19.70;;;8.27;;
33190;SDS011;19554;42.652;23.364;2023-05-29T04:38:26;15.25;;;7.47;;
33190;SDS011;19554;42.652;23.364;2023-05-29T04:40:52;15.60;;;7.47;;
33190;SDS011;19554;42.652;23.364;2023-05-29T04:43:17;11.35;;;7.18;;
33190;SDS011;19554;42.652;23.364;2023-05-29T04:45:43;10.27;;;6.13;;
33190;SDS011;19554;42.652;23.364;2023-05-29T04:48:09;9.65;;;6.13;;
33190;SDS011;19554;42.652;23.364;2023-05-29T04:50:34;13.55;;;5.78;;
33190;SDS011;19554;42.652;23.364;2023-05-29T04:53:01;18.08;;;6.50;;
33190;SDS011;19554;42.652;23.364;2023-05-29T04:55:27;15.32;;;6.10;;
33190;SDS011;19554;42.652;23.364;2023-05-29T04:57:52;13.85;;;6.32;;
33190;SDS011;19554;42.652;23.364;2023-05-29T05:00:18;13.90;;;5.60;;
33190;SDS011;19554;42.652;23.364;2023-05-29T05:02:44;8.00;;;5.03;;
33190;SDS011;19554;42.652;23.364;2023-05-29T05:05:10;16.33;;;6.68;;
33190;SDS011;19554;42.652;23.364;2023-05-29T05:07:36;12.45;;;7.25;;
33190;SDS011;19554;42.652;23.364;2023-05-29T05:10:04;17.05;;;6.68;;
33190;SDS011;19554;42.652;23.364;2023-05-29T05:12:31;7.55;;;5.68;;
33190;SDS011;19554;42.652;23.364;2023-05-29T05:14:56;11.88;;;6.82;;
33190;SDS011;19554;42.652;23.364;2023-05-29T05:17:22;9.70;;;6.40;;
33190;SDS011;19554;42.652;23.364;2023-05-29T05:19:47;14.27;;;7.82;;
33190;SDS011;19554;42.652;23.364;2023-05-29T05:22:18;16.77;;;8.23;;
33190;SDS011;19554;42.652;23.364;2023-05-29T05:24:43;15.15;;;8.23;;
33190;SDS011;19554;42.652;23.364;2023-05-29T05:27:09;17.42;;;8.55;;
33190;SDS011;19554;42.652;23.364;2023-05-29T05:29:34;13.38;;;7.75;;
33190;SDS011;19554;42.652;23.364;2023-05-29T05:31:59;15.82;;;8.73;;
33190;SDS011;19554;42.652;23.364;2023-05-29T05:34:25;12.55;;;8.05;;
33190;SDS011;19554;42.652;23.364;2023-05-29T05:36:50;12.98;;;8.57;;
33190;SDS011;19554;42.652;23.364;2023-05-29T05:39:15;13.60;;;7.85;;
33190;SDS011;19554;42.652;23.364;2023-05-29T05:41:41;15.15;;;7.43;;
33190;SDS011;19554;42.652;23.364;2023-05-29T05:44:06;12.77;;;8.65;;
33190;SDS011;19554;42.652;23.364;2023-05-29T05:46:31;15.07;;;8.52;;
33190;SDS011;19554;42.652;23.364;2023-05-29T05:48:57;14.25;;;7.18;;
33190;SDS011;19554;42.652;23.364;2023-05-29T05:51:23;9.02;;;6.38;;
33190;SDS011;19554;42.652;23.364;2023-05-29T05:53:49;10.80;;;5.85;;
33190;SDS011;19554;42.652;23.364;2023-05-29T05:56:14;10.82;;;5.00;;
33190;SDS011;19554;42.652;23.364;2023-05-29T05:58:39;7.78;;;4.40;;
33190;SDS011;19554;42.652;23.364;2023-05-29T06:01:06;7.68;;;4.38;;
33190;SDS011;19554;42.652;23.364;2023-05-29T06:03:33;9.10;;;5.43;;
33190;SDS011;19554;42.652;23.364;2023-05-29T06:05:58;7.90;;;4.60;;
33190;SDS011;19554;42.652;23.364;2023-05-29T06:08:23;9.20;;;5.63;;
33190;SDS011;19554;42.652;23.364;2023-05-29T06:10:49;10.05;;;5.93;;
33190;SDS011;19554;42.652;23.364;2023-05-29T06:13:14;8.73;;;5.30;;
33190;SDS011;19554;42.652;23.364;2023-05-29T06:15:41;9.05;;;5.53;;
33190;SDS011;19554;42.652;23.364;2023-05-29T06:18:07;8.98;;;5.07;;
33190;SDS011;19554;42.652;23.364;2023-05-29T06:20:32;7.10;;;4.57;;
33190;SDS011;19554;42.652;23.364;2023-05-29T06:22:58;8.88;;;4.88;;
33190;SDS011;19554;42.652;23.364;2023-05-29T06:25:23;8.18;;;5.18;;
33190;SDS011;19554;42.652;23.364;2023-05-29T06:27:57;8.55;;;5.10;;
33190;SDS011;19554;42.652;23.364;2023-05-29T06:30:23;10.27;;;4.57;;
33190;SDS011;19554;42.652;23.364;2023-05-29T06:32:49;7.30;;;3.53;;
33190;SDS011;19554;42.652;23.364;2023-05-29T06:35:14;4.00;;;3.20;;
33190;SDS011;19554;42.652;23.364;2023-05-29T06:37:40;5.15;;;3.25;;
33190;SDS011;19554;42.652;23.364;2023-05-29T06:40:05;4.47;;;2.95;;
33190;SDS011;19554;42.652;23.364;2023-05-29T06:42:31;6.72;;;2.97;;
33190;SDS011;19554;42.652;23.364;2023-05-29T06:44:57;4.97;;;2.90;;
33190;SDS011;19554;42.652;23.364;2023-05-29T06:47:22;3.03;;;2.40;;
33190;SDS011;19554;42.652;23.364;2023-05-29T06:49:48;6.75;;;2.58;;
33190;SDS011;19554;42.652;23.364;2023-05-29T06:52:13;3.67;;;2.05;;
33190;SDS011;19554;42.652;23.364;2023-05-29T06:54:38;5.43;;;3.10;;
33190;SDS011;19554;42.652;23.364;2023-05-29T06:57:04;5.57;;;2.90;;
33190;SDS011;19554;42.652;23.364;2023-05-29T06:59:29;3.30;;;2.45;;
33190;SDS011;19554;42.652;23.364;2023-05-29T07:01:55;8.13;;;2.63;;
33190;SDS011;19554;42.652;23.364;2023-05-29T07:04:20;3.05;;;2.30;;
33190;SDS011;19554;42.652;23.364;2023-05-29T07:06:46;5.68;;;2.60;;
33190;SDS011;19554;42.652;23.364;2023-05-29T07:09:11;3.28;;;2.00;;
33190;SDS011;19554;42.652;23.364;2023-05-29T07:11:37;3.20;;;2.10;;
33190;SDS011;19554;42.652;23.364;2023-05-29T07:14:03;2.20;;;2.00;;
33190;SDS011;19554;42.652;23.364;2023-05-29T07:16:28;2.83;;;2.38;;
33190;SDS011;19554;42.652;23.364;2023-05-29T07:18:53;4.65;;;3.10;;
33190;SDS011;19554;42.652;23.364;2023-05-29T07:21:19;5.22;;;3.30;;
33190;SDS011;19554;42.652;23.364;2023-05-29T07:23:45;4.60;;;3.20;;
33190;SDS011;19554;42.652;23.364;2023-05-29T07:26:10;4.88;;;2.53;;
33190;SDS011;19554;42.652;23.364;2023-05-29T07:28:36;5.60;;;2.65;;
33190;SDS011;19554;42.652;23.364;2023-05-29T07:31:01;3.33;;;2.97;;
33190;SDS011;19554;42.652;23.364;2023-05-29T07:33:27;9.63;;;3.40;;
33190;SDS011;19554;42.652;23.364;2023-05-29T07:35:52;5.18;;;3.25;;
33190;SDS011;19554;42.652;23.364;2023-05-29T07:38:17;5.75;;;2.70;;
33190;SDS011;19554;42.652;23.364;2023-05-29T07:40:43;6.65;;;3.25;;
33190;SDS011;19554;42.652;23.364;2023-05-29T07:43:09;4.32;;;2.53;;
33190;SDS011;19554;42.652;23.364;2023-05-29T07:45:34;3.45;;;2.80;;
33190;SDS011;19554;42.652;23.364;2023-05-29T07:48:00;6.07;;;2.80;;
33190;SDS011;19554;42.652;23.364;2023-05-29T07:50:25;5.50;;;3.05;;
33190;SDS011;19554;42.652;23.364;2023-05-29T07:52:51;3.35;;;2.90;;
33190;SDS011;19554;42.652;23.364;2023-05-29T07:55:17;4.40;;;3.30;;
33190;SDS011;19554;42.652;23.364;2023-05-29T07:57:43;4.05;;;3.10;;
33190;SDS011;19554;42.652;23.364;2023-05-29T08:00:08;6.07;;;3.55;;
33190;SDS011;19554;42.652;23.364;2023-05-29T08:02:34;3.75;;;2.70;;
33190;SDS011;19554;42.652;23.364;2023-05-29T08:05:02;13.38;;;4.00;;
33190;SDS011;19554;42.652;23.364;2023-05-29T08:07:28;6.15;;;3.05;;
33190;SDS011;19554;42.652;23.364;2023-05-29T08:09:53;6.15;;;3.05;;
33190;SDS011;19554;42.652;23.364;2023-05-29T08:12:19;3.65;;;3.05;;
33190;SDS011;19554;42.652;23.364;2023-05-29T08:14:45;4.50;;;3.25;;
33190;SDS011;19554;42.652;23.364;2023-05-29T08:17:10;5.25;;;3.20;;
33190;SDS011;19554;42.652;23.364;2023-05-29T08:19:36;5.20;;;3.25;;
33190;SDS011;19554;42.652;23.364;2023-05-29T08:22:01;4.68;;;3.33;;
33190;SDS011;19554;42.652;23.364;2023-05-29T08:24:27;9.38;;;3.20;;
33190;SDS011;19554;42.652;23.364;2023-05-29T08:26:53;5.05;;;3.33;;
33190;SDS011;19554;42.652;23.364;2023-05-29T08:29:18;3.92;;;3.40;;
33190;SDS011;19554;42.652;23.364;2023-05-29T08:31:44;4.43;;;3.55;;
33190;SDS011;19554;42.652;23.364;2023-05-29T08:34:09;7.10;;;3.10;;
33190;SDS011;19554;42.652;23.364;2023-05-29T08:36:35;4.78;;;3.13;;
33190;SDS011;19554;42.652;23.364;2023-05-29T08:39:00;7.10;;;3.55;;
33190;SDS011;19554;42.652;23.364;2023-05-29T08:44:06;7.55;;;3.17;;
33190;SDS011;19554;42.652;23.364;2023-05-29T08:46:32;4.45;;;3.05;;
33190;SDS011;19554;42.652;23.364;2023-05-29T08:48:58;5.85;;;3.42;;
33190;SDS011;19554;42.652;23.364;2023-05-29T08:51:27;3.38;;;2.40;;
33190;SDS011;19554;42.652;23.364;2023-05-29T08:53:57;6.75;;;2.80;;
33190;SDS011;19554;42.652;23.364;2023-05-29T08:56:22;4.32;;;2.72;;
33190;SDS011;19554;42.652;23.364;2023-05-29T08:58:48;6.90;;;3.03;;
33190;SDS011;19554;42.652;23.364;2023-05-29T09:01:14;3.38;;;2.47;;
33190;SDS011;19554;42.652;23.364;2023-05-29T09:03:39;4.78;;;3.20;;
33190;SDS011;19554;42.652;23.364;2023-05-29T09:06:06;5.18;;;2.90;;
33190;SDS011;19554;42.652;23.364;2023-05-29T09:08:33;4.18;;;2.63;;
33190;SDS011;19554;42.652;23.364;2023-05-29T09:10:59;3.92;;;3.28;;
33190;SDS011;19554;42.652;23.364;2023-05-29T09:13:25;5.05;;;3.42;;
33190;SDS011;19554;42.652;23.364;2023-05-29T09:15:50;8.25;;;3.13;;
33190;SDS011;19554;42.652;23.364;2023-05-29T09:18:28;4.65;;;3.20;;
33190;SDS011;19554;42.652;23.364;2023-05-29T09:20:56;4.85;;;3.08;;
33190;SDS011;19554;42.652;23.364;2023-05-29T09:23:22;4.18;;;2.95;;
33190;SDS011;19554;42.652;23.364;2023-05-29T09:25:50;6.07;;;3.20;;
33190;SDS011;19554;42.652;23.364;2023-05-29T09:28:18;5.22;;;2.97;;
33190;SDS011;19554;42.652;23.364;2023-05-29T09:30:46;7.22;;;3.88;;
33190;SDS011;19554;42.652;23.364;2023-05-29T09:33:15;6.15;;;3.20;;
33190;SDS011;19554;42.652;23.364;2023-05-29T09:35:41;5.47;;;3.47;;
33190;SDS011;19554;42.652;23.364;2023-05-29T09:38:09;7.32;;;4.38;;
33190;SDS011;19554;42.652;23.364;2023-05-29T09:40:36;4.43;;;3.40;;
33190;SDS011;19554;42.652;23.364;2023-05-29T09:43:03;8.82;;;3.50;;
33190;SDS011;19554;42.652;23.364;2023-05-29T09:45:29;5.70;;;2.95;;
33190;SDS011;19554;42.652;23.364;2023-05-29T09:47:56;7.15;;;4.20;;
33190;SDS011;19554;42.652;23.364;2023-05-29T09:50:24;10.38;;;4.10;;
33190;SDS011;19554;42.652;23.364;2023-05-29T09:52:50;4.93;;;3.58;;
33190;SDS011;19554;42.652;23.364;2023-05-29T09:55:17;7.40;;;3.47;;
33190;SDS011;19554;42.652;23.364;2023-05-29T09:57:47;4.55;;;2.80;;
33190;SDS011;19554;42.652;23.364;2023-05-29T10:00:17;4.95;;;3.20;;
33190;SDS011;19554;42.652;23.364;2023-05-29T10:02:42;3.67;;;3.20;;
33190;SDS011;19554;42.652;23.364;2023-05-29T10:05:08;7.10;;;3.10;;
33190;SDS011;19554;42.652;23.364;2023-05-29T10:07:35;6.95;;;3.60;;
33190;SDS011;19554;42.652;23.364;2023-05-29T10:10:02;5.70;;;3.20;;
33190;SDS011;19554;42.652;23.364;2023-05-29T10:12:31;5.25;;;3.33;;
33190;SDS011;19554;42.652;23.364;2023-05-29T10:15:01;5.93;;;3.78;;
33190;SDS011;19554;42.652;23.364;2023-05-29T10:17:32;4.00;;;3.08;;
33190;SDS011;19554;42.652;23.364;2023-05-29T10:20:00;5.68;;;3.28;;
33190;SDS011;19554;42.652;23.364;2023-05-29T10:22:27;5.78;;;3.60;;
33190;SDS011;19554;42.652;23.364;2023-05-29T10:24:54;5.38;;;3.10;;
33190;SDS011;19554;42.652;23.364;2023-05-29T10:27:21;5.68;;;3.67;;
33190;SDS011;19554;42.652;23.364;2023-05-29T10:29:52;4.60;;;3.50;;
33190;SDS011;19554;42.652;23.364;2023-05-29T10:35:11;5.82;;;3.20;;
33190;SDS011;19554;42.652;23.364;2023-05-29T10:37:52;3.83;;;3.38;;
33190;SDS011;19554;42.652;23.364;2023-05-29T10:40:23;4.78;;;3.53;;
33190;SDS011;19554;42.652;23.364;2023-05-29T10:42:51;5.35;;;3.65;;
33190;SDS011;19554;42.652;23.364;2023-05-29T10:47:55;5.40;;;3.42;;
33190;SDS011;19554;42.652;23.364;2023-05-29T10:50:42;7.75;;;3.92;;
33190;SDS011;19554;42.652;23.364;2023-05-29T10:53:07;9.50;;;4.13;;
33190;SDS011;19554;42.652;23.364;2023-05-29T10:55:38;7.07;;;4.28;;
33190;SDS011;19554;42.652;23.364;2023-05-29T10:58:04;5.25;;;3.38;;
33190;SDS011;19554;42.652;23.364;2023-05-29T11:00:30;6.60;;;3.65;;
33190;SDS011;19554;42.652;23.364;2023-05-29T11:02:55;7.80;;;4.13;;
33190;SDS011;19554;42.652;23.364;2023-05-29T11:05:21;9.40;;;4.18;;
33190;SDS011;19554;42.652;23.364;2023-05-29T11:13:04;6.32;;;3.72;;
33190;SDS011;19554;42.652;23.364;2023-05-29T11:15:32;4.75;;;4.20;;
33190;SDS011;19554;42.652;23.364;2023-05-29T11:18:05;9.23;;;4.47;;
33190;SDS011;19554;42.652;23.364;2023-05-29T11:23:23;6.07;;;3.70;;
33190;SDS011;19554;42.652;23.364;2023-05-29T11:25:50;13.45;;;4.80;;
33190;SDS011;19554;42.652;23.364;2023-05-29T11:28:16;7.80;;;4.18;;
33190;SDS011;19554;42.652;23.364;2023-05-29T11:30:45;7.00;;;4.00;;
33190;SDS011;19554;42.652;23.364;2023-05-29T11:33:15;10.98;;;4.57;;
33190;SDS011;19554;42.652;23.364;2023-05-29T11:35:48;8.55;;;4.25;;
33190;SDS011;19554;42.652;23.364;2023-05-29T11:38:20;6.82;;;3.90;;
33190;SDS011;19554;42.652;23.364;2023-05-29T11:40:45;8.02;;;4.30;;
33190;SDS011;19554;42.652;23.364;2023-05-29T11:43:12;13.82;;;4.32;;
33190;SDS011;19554;42.652;23.364;2023-05-29T11:45:38;9.50;;;4.22;;
33190;SDS011;19554;42.652;23.364;2023-05-29T11:48:03;7.80;;;4.40;;
33190;SDS011;19554;42.652;23.364;2023-05-29T11:50:30;6.90;;;3.53;;
33190;SDS011;19554;42.652;23.364;2023-05-29T11:52:57;7.45;;;3.97;;
33190;SDS011;19554;42.652;23.364;2023-05-29T11:55:23;7.22;;;4.03;;
33190;SDS011;19554;42.652;23.364;2023-05-29T11:57:51;8.70;;;3.80;;
33190;SDS011;19554;42.652;23.364;2023-05-29T12:00:21;9.70;;;3.92;;
33190;SDS011;19554;42.652;23.364;2023-05-29T12:02:47;16.42;;;4.75;;
33190;SDS011;19554;42.652;23.364;2023-05-29T12:05:15;8.63;;;4.75;;
33190;SDS011;19554;42.652;23.364;2023-05-29T12:07:48;8.32;;;4.82;;
33190;SDS011;19554;42.652;23.364;2023-05-29T12:10:16;8.05;;;4.68;;
33190;SDS011;19554;42.652;23.364;2023-05-29T12:12:42;9.07;;;5.20;;
33190;SDS011;19554;42.652;23.364;2023-05-29T12:15:11;8.25;;;5.35;;
33190;SDS011;19554;42.652;23.364;2023-05-29T12:17:38;9.73;;;5.18;;
33190;SDS011;19554;42.652;23.364;2023-05-29T12:20:05;10.45;;;4.38;;
33190;SDS011;19554;42.652;23.364;2023-05-29T12:22:34;6.70;;;4.57;;
33190;SDS011;19554;42.652;23.364;2023-05-29T12:25:13;8.07;;;4.25;;
33190;SDS011;19554;42.652;23.364;2023-05-29T12:27:41;8.88;;;4.30;;
33190;SDS011;19554;42.652;23.364;2023-05-29T12:30:11;7.38;;;4.35;;
33190;SDS011;19554;42.652;23.364;2023-05-29T12:32:40;8.57;;;4.43;;
33190;SDS011;19554;42.652;23.364;2023-05-29T12:35:14;8.18;;;5.00;;
33190;SDS011;19554;42.652;23.364;2023-05-29T12:40:33;5.97;;;3.78;;
33190;SDS011;19554;42.652;23.364;2023-05-29T12:43:00;8.63;;;4.38;;
33190;SDS011;19554;42.652;23.364;2023-05-29T12:45:31;7.93;;;4.32;;
33190;SDS011;19554;42.652;23.364;2023-05-29T12:50:27;6.72;;;5.00;;
33190;SDS011;19554;42.652;23.364;2023-05-29T12:53:00;7.55;;;4.68;;
33190;SDS011;19554;42.652;23.364;2023-05-29T12:55:28;10.18;;;4.40;;
33190;SDS011;19554;42.652;23.364;2023-05-29T12:57:55;6.03;;;4.32;;
33190;SDS011;19554;42.652;23.364;2023-05-29T13:00:21;5.25;;;3.88;;
33190;SDS011;19554;42.652;23.364;2023-05-29T13:02:48;8.77;;;4.47;;
33190;SDS011;19554;42.652;23.364;2023-05-29T13:05:14;5.60;;;4.13;;
33190;SDS011;19554;42.652;23.364;2023-05-29T13:07:41;8.43;;;4.40;;
33190;SDS011;19554;42.652;23.364;2023-05-29T13:10:14;10.00;;;5.30;;
33190;SDS011;19554;42.652;23.364;2023-05-29T13:12:40;8.63;;;5.15;;
33190;SDS011;19554;42.652;23.364;2023-05-29T13:15:07;7.97;;;5.78;;
33190;SDS011;19554;42.652;23.364;2023-05-29T13:17:33;7.85;;;5.25;;
33190;SDS011;19554;42.652;23.364;2023-05-29T13:19:59;10.93;;;6.93;;
33190;SDS011;19554;42.652;23.364;2023-05-29T13:22:24;9.27;;;6.18;;
33190;SDS011;19554;42.652;23.364;2023-05-29T13:24:55;10.60;;;5.38;;
33190;SDS011;19554;42.652;23.364;2023-05-29T13:27:24;9.05;;;5.88;;
33190;SDS011;19554;42.652;23.364;2023-05-29T13:29:50;7.90;;;4.75;;
33190;SDS011;19554;42.652;23.364;2023-05-29T13:32:16;12.15;;;4.82;;
33190;SDS011;19554;42.652;23.364;2023-05-29T13:34:42;7.72;;;4.80;;
33190;SDS011;19554;42.652;23.364;2023-05-29T13:37:07;7.78;;;5.25;;
33190;SDS011;19554;42.652;23.364;2023-05-29T13:39:33;7.03;;;5.68;;
33190;SDS011;19554;42.652;23.364;2023-05-29T13:41:58;7.22;;;4.70;;
33190;SDS011;19554;42.652;23.364;2023-05-29T13:44:24;8.75;;;5.47;;
33190;SDS011;19554;42.652;23.364;2023-05-29T13:46:49;8.13;;;5.47;;
33190;SDS011;19554;42.652;23.364;2023-05-29T13:49:15;6.53;;;5.55;;
33190;SDS011;19554;42.652;23.364;2023-05-29T13:51:41;18.42;;;7.82;;
33190;SDS011;19554;42.652;23.364;2023-05-29T13:54:06;14.30;;;6.30;;
33190;SDS011;19554;42.652;23.364;2023-05-29T13:56:32;15.38;;;6.63;;
33190;SDS011;19554;42.652;23.364;2023-05-29T13:58:57;10.15;;;6.10;;
33190;SDS011;19554;42.652;23.364;2023-05-29T14:01:28;10.95;;;5.88;;
33190;SDS011;19554;42.652;23.364;2023-05-29T14:03:55;19.70;;;6.85;;
33190;SDS011;19554;42.652;23.364;2023-05-29T14:06:20;13.50;;;6.07;;
33190;SDS011;19554;42.652;23.364;2023-05-29T14:08:46;9.45;;;5.35;;
33190;SDS011;19554;42.652;23.364;2023-05-29T14:11:11;8.35;;;5.82;;
33190;SDS011;19554;42.652;23.364;2023-05-29T14:13:36;14.48;;;5.60;;
33190;SDS011;19554;42.652;23.364;2023-05-29T14:16:02;7.82;;;5.32;;
33190;SDS011;19554;42.652;23.364;2023-05-29T14:18:27;8.85;;;5.97;;
33190;SDS011;19554;42.652;23.364;2023-05-29T14:20:53;7.40;;;4.05;;
33190;SDS011;19554;42.652;23.364;2023-05-29T14:23:18;6.32;;;2.38;;
33190;SDS011;19554;42.652;23.364;2023-05-29T14:25:43;3.08;;;2.30;;
33190;SDS011;19554;42.652;23.364;2023-05-29T14:28:09;7.35;;;2.28;;
33190;SDS011;19554;42.652;23.364;2023-05-29T14:30:35;3.53;;;1.90;;
33190;SDS011;19554;42.652;23.364;2023-05-29T14:33:01;3.85;;;1.80;;
33190;SDS011;19554;42.652;23.364;2023-05-29T14:35:26;2.83;;;1.67;;
33190;SDS011;19554;42.652;23.364;2023-05-29T14:37:52;7.28;;;2.28;;
33190;SDS011;19554;42.652;23.364;2023-05-29T14:40:17;4.63;;;2.50;;
33190;SDS011;19554;42.652;23.364;2023-05-29T14:42:43;8.40;;;2.58;;
33190;SDS011;19554;42.652;23.364;2023-05-29T14:45:08;8.02;;;2.97;;
33190;SDS011;19554;42.652;23.364;2023-05-29T14:47:34;17.42;;;3.75;;
33190;SDS011;19554;42.652;23.364;2023-05-29T14:50:00;6.53;;;3.35;;
33190;SDS011;19554;42.652;23.364;2023-05-29T14:52:26;16.77;;;3.45;;
33190;SDS011;19554;42.652;23.364;2023-05-29T14:54:51;8.20;;;2.90;;
33190;SDS011;19554;42.652;23.364;2023-05-29T14:57:16;5.15;;;3.25;;